sensor_id;sensor_type;location;lat;lon;timestamp;temperature;humidity
74153;DHT22;62505;46.070;14.492;2022-12-07T00:01:18;20.50;81.30
74153;DHT22;62505;46.070;14.492;2022-12-07T00:03:46;20.50;81.20
74153;DHT22;62505;46.070;14.492;2022-12-07T00:06:15;20.50;81.30
74153;DHT22;62505;46.070;14.492;2022-12-07T00:08:42;20.60;81.40
74153;DHT22;62505;46.070;14.492;2022-12-07T00:11:13;20.50;81.20
74153;DHT22;62505;46.070;14.492;2022-12-07T00:13:40;20.60;81.30
74153;DHT22;62505;46.070;14.492;2022-12-07T00:16:09;20.60;81.10
74153;DHT22;62505;46.070;14.492;2022-12-07T00:18:37;20.60;81.40
74153;DHT22;62505;46.070;14.492;2022-12-07T00:21:05;20.60;81.40
74153;DHT22;62505;46.070;14.492;2022-12-07T00:23:33;20.50;81.20
74153;DHT22;62505;46.070;14.492;2022-12-07T00:26:04;20.50;81.20
74153;DHT22;62505;46.070;14.492;2022-12-07T00:28:33;20.50;81.10
74153;DHT22;62505;46.070;14.492;2022-12-07T00:31:02;20.60;81.10
74153;DHT22;62505;46.070;14.492;2022-12-07T00:33:29;20.50;81.30
74153;DHT22;62505;46.070;14.492;2022-12-07T00:35:59;20.50;81.30
74153;DHT22;62505;46.070;14.492;2022-12-07T00:38:28;20.50;81.00
74153;DHT22;62505;46.070;14.492;2022-12-07T00:40:56;20.60;81.30
74153;DHT22;62505;46.070;14.492;2022-12-07T00:43:24;20.60;81.00
74153;DHT22;62505;46.070;14.492;2022-12-07T00:45:52;20.50;82.00
74153;DHT22;62505;46.070;14.492;2022-12-07T00:48:19;20.60;81.40
74153;DHT22;62505;46.070;14.492;2022-12-07T00:50:46;20.60;81.00
74153;DHT22;62505;46.070;14.492;2022-12-07T00:53:14;20.50;81.30
74153;DHT22;62505;46.070;14.492;2022-12-07T00:55:42;20.60;81.30
74153;DHT22;62505;46.070;14.492;2022-12-07T00:58:09;20.60;81.30
74153;DHT22;62505;46.070;14.492;2022-12-07T01:00:37;20.60;81.40
74153;DHT22;62505;46.070;14.492;2022-12-07T01:03:07;20.60;81.20
74153;DHT22;62505;46.070;14.492;2022-12-07T01:05:34;20.50;81.30
74153;DHT22;62505;46.070;14.492;2022-12-07T01:08:02;20.50;81.40
74153;DHT22;62505;46.070;14.492;2022-12-07T01:10:29;20.60;81.30
74153;DHT22;62505;46.070;14.492;2022-12-07T01:12:57;20.60;81.20
74153;DHT22;62505;46.070;14.492;2022-12-07T01:15:24;20.50;81.30
74153;DHT22;62505;46.070;14.492;2022-12-07T01:17:51;20.50;81.40
74153;DHT22;62505;46.070;14.492;2022-12-07T01:20:21;20.50;81.20
74153;DHT22;62505;46.070;14.492;2022-12-07T01:22:48;20.60;81.40
74153;DHT22;62505;46.070;14.492;2022-12-07T01:25:15;20.50;81.30
74153;DHT22;62505;46.070;14.492;2022-12-07T01:27:42;20.50;81.30
74153;DHT22;62505;46.070;14.492;2022-12-07T01:30:11;20.50;81.20
74153;DHT22;62505;46.070;14.492;2022-12-07T01:32:38;20.50;81.40
74153;DHT22;62505;46.070;14.492;2022-12-07T01:35:06;20.50;81.30
74153;DHT22;62505;46.070;14.492;2022-12-07T01:37:36;20.50;81.40
74153;DHT22;62505;46.070;14.492;2022-12-07T01:40:04;20.50;81.20
74153;DHT22;62505;46.070;14.492;2022-12-07T01:42:32;20.50;81.30
74153;DHT22;62505;46.070;14.492;2022-12-07T01:45:32;20.50;81.30
74153;DHT22;62505;46.070;14.492;2022-12-07T01:48:04;20.50;81.20
74153;DHT22;62505;46.070;14.492;2022-12-07T01:50:32;20.50;81.30
74153;DHT22;62505;46.070;14.492;2022-12-07T01:53:03;20.50;81.30
74153;DHT22;62505;46.070;14.492;2022-12-07T01:55:32;20.50;81.30
74153;DHT22;62505;46.070;14.492;2022-12-07T01:58:00;20.50;81.20
74153;DHT22;62505;46.070;14.492;2022-12-07T02:00:27;20.60;81.40
74153;DHT22;62505;46.070;14.492;2022-12-07T02:02:57;20.50;81.30
74153;DHT22;62505;46.070;14.492;2022-12-07T02:05:26;20.50;81.10
74153;DHT22;62505;46.070;14.492;2022-12-07T02:07:55;20.50;81.40
74153;DHT22;62505;46.070;14.492;2022-12-07T02:10:25;20.50;81.30
74153;DHT22;62505;46.070;14.492;2022-12-07T02:12:56;20.50;81.40
74153;DHT22;62505;46.070;14.492;2022-12-07T02:15:30;20.50;81.30
74153;DHT22;62505;46.070;14.492;2022-12-07T02:18:03;20.50;81.40
74153;DHT22;62505;46.070;14.492;2022-12-07T02:20:33;20.50;81.10
74153;DHT22;62505;46.070;14.492;2022-12-07T02:26:38;20.50;81.20
74153;DHT22;62505;46.070;14.492;2022-12-07T02:29:18;20.50;81.10
74153;DHT22;62505;46.070;14.492;2022-12-07T02:31:53;20.50;81.40
74153;DHT22;62505;46.070;14.492;2022-12-07T02:34:28;20.50;81.20
74153;DHT22;62505;46.070;14.492;2022-12-07T02:37:01;20.50;81.30
74153;DHT22;62505;46.070;14.492;2022-12-07T02:39:34;20.50;81.30
74153;DHT22;62505;46.070;14.492;2022-12-07T02:42:09;20.50;81.20
74153;DHT22;62505;46.070;14.492;2022-12-07T02:44:40;20.50;81.30
74153;DHT22;62505;46.070;14.492;2022-12-07T02:47:10;20.50;81.30
74153;DHT22;62505;46.070;14.492;2022-12-07T02:49:39;20.50;81.40
74153;DHT22;62505;46.070;14.492;2022-12-07T02:52:06;20.50;81.40
74153;DHT22;62505;46.070;14.492;2022-12-07T02:54:33;20.50;81.30
74153;DHT22;62505;46.070;14.492;2022-12-07T02:57:04;20.50;81.20
74153;DHT22;62505;46.070;14.492;2022-12-07T02:59:44;20.50;81.40
74153;DHT22;62505;46.070;14.492;2022-12-07T03:02:20;20.50;81.00
74153;DHT22;62505;46.070;14.492;2022-12-07T03:04:59;20.50;81.30
74153;DHT22;62505;46.070;14.492;2022-12-07T03:07:33;20.50;81.00
74153;DHT22;62505;46.070;14.492;2022-12-07T03:10:08;20.50;81.30
74153;DHT22;62505;46.070;14.492;2022-12-07T03:12:40;20.50;81.40
74153;DHT22;62505;46.070;14.492;2022-12-07T03:15:14;20.50;81.30
74153;DHT22;62505;46.070;14.492;2022-12-07T03:17:44;20.50;81.30
74153;DHT22;62505;46.070;14.492;2022-12-07T03:20:15;20.50;81.40
74153;DHT22;62505;46.070;14.492;2022-12-07T03:22:46;20.50;81.40
74153;DHT22;62505;46.070;14.492;2022-12-07T03:25:15;20.50;81.40
74153;DHT22;62505;46.070;14.492;2022-12-07T03:27:45;20.50;81.40
74153;DHT22;62505;46.070;14.492;2022-12-07T03:30:21;20.50;81.40
74153;DHT22;62505;46.070;14.492;2022-12-07T03:32:50;20.50;81.40
74153;DHT22;62505;46.070;14.492;2022-12-07T03:35:24;20.50;81.20
74153;DHT22;62505;46.070;14.492;2022-12-07T03:37:55;20.50;81.30
74153;DHT22;62505;46.070;14.492;2022-12-07T03:40:26;20.50;81.40
74153;DHT22;62505;46.070;14.492;2022-12-07T03:42:56;20.50;81.40
74153;DHT22;62505;46.070;14.492;2022-12-07T03:45:31;20.50;81.40
74153;DHT22;62505;46.070;14.492;2022-12-07T03:48:04;20.50;81.20
74153;DHT22;62505;46.070;14.492;2022-12-07T03:50:36;20.50;81.30
74153;DHT22;62505;46.070;14.492;2022-12-07T03:53:09;20.50;81.40
74153;DHT22;62505;46.070;14.492;2022-12-07T03:55:40;20.50;82.10
74153;DHT22;62505;46.070;14.492;2022-12-07T03:58:10;20.50;81.30
74153;DHT22;62505;46.070;14.492;2022-12-07T04:00:40;20.50;81.30
74153;DHT22;62505;46.070;14.492;2022-12-07T04:03:08;20.50;81.40
74153;DHT22;62505;46.070;14.492;2022-12-07T04:05:35;20.50;81.40
74153;DHT22;62505;46.070;14.492;2022-12-07T04:08:02;20.50;81.40
74153;DHT22;62505;46.070;14.492;2022-12-07T04:10:29;20.50;81.40
74153;DHT22;62505;46.070;14.492;2022-12-07T04:12:56;20.50;81.20
74153;DHT22;62505;46.070;14.492;2022-12-07T04:15:23;20.50;81.40
74153;DHT22;62505;46.070;14.492;2022-12-07T04:17:51;20.50;81.30
74153;DHT22;62505;46.070;14.492;2022-12-07T04:20:19;20.50;81.30
74153;DHT22;62505;46.070;14.492;2022-12-07T04:22:46;20.50;81.30
74153;DHT22;62505;46.070;14.492;2022-12-07T04:25:13;20.50;81.40
74153;DHT22;62505;46.070;14.492;2022-12-07T04:27:40;20.50;81.30
74153;DHT22;62505;46.070;14.492;2022-12-07T04:30:08;20.50;81.40
74153;DHT22;62505;46.070;14.492;2022-12-07T04:32:35;20.50;81.30
74153;DHT22;62505;46.070;14.492;2022-12-07T04:35:04;20.50;82.10
74153;DHT22;62505;46.070;14.492;2022-12-07T04:37:31;20.50;81.30
74153;DHT22;62505;46.070;14.492;2022-12-07T04:39:58;20.50;82.00
74153;DHT22;62505;46.070;14.492;2022-12-07T04:42:25;20.50;81.40
74153;DHT22;62505;46.070;14.492;2022-12-07T04:44:52;20.50;81.40
74153;DHT22;62505;46.070;14.492;2022-12-07T04:47:19;20.50;81.40
74153;DHT22;62505;46.070;14.492;2022-12-07T04:49:46;20.50;81.30
74153;DHT22;62505;46.070;14.492;2022-12-07T04:52:14;20.50;81.40
74153;DHT22;62505;46.070;14.492;2022-12-07T04:54:41;20.50;81.40
74153;DHT22;62505;46.070;14.492;2022-12-07T04:57:08;20.50;81.30
74153;DHT22;62505;46.070;14.492;2022-12-07T04:59:35;20.50;81.20
74153;DHT22;62505;46.070;14.492;2022-12-07T05:02:02;20.50;81.20
74153;DHT22;62505;46.070;14.492;2022-12-07T05:04:29;20.50;81.40
74153;DHT22;62505;46.070;14.492;2022-12-07T05:06:56;20.50;81.40
74153;DHT22;62505;46.070;14.492;2022-12-07T05:09:24;20.50;81.30
74153;DHT22;62505;46.070;14.492;2022-12-07T05:11:51;20.50;81.30
74153;DHT22;62505;46.070;14.492;2022-12-07T05:14:19;20.50;81.40
74153;DHT22;62505;46.070;14.492;2022-12-07T05:16:48;20.50;81.30
74153;DHT22;62505;46.070;14.492;2022-12-07T05:19:15;20.50;81.40
74153;DHT22;62505;46.070;14.492;2022-12-07T05:21:43;20.50;81.30
74153;DHT22;62505;46.070;14.492;2022-12-07T05:24:11;20.50;81.40
74153;DHT22;62505;46.070;14.492;2022-12-07T05:26:39;20.50;81.40
74153;DHT22;62505;46.070;14.492;2022-12-07T05:29:06;20.50;81.40
74153;DHT22;62505;46.070;14.492;2022-12-07T05:31:33;20.50;81.50
74153;DHT22;62505;46.070;14.492;2022-12-07T05:34:00;20.50;81.50
74153;DHT22;62505;46.070;14.492;2022-12-07T05:36:27;20.50;81.40
74153;DHT22;62505;46.070;14.492;2022-12-07T05:38:56;20.50;81.50
74153;DHT22;62505;46.070;14.492;2022-12-07T05:41:23;20.50;82.00
74153;DHT22;62505;46.070;14.492;2022-12-07T05:44:09;20.70;82.80
74153;DHT22;62505;46.070;14.492;2022-12-07T05:46:36;20.80;82.30
74153;DHT22;62505;46.070;14.492;2022-12-07T05:49:03;20.80;82.00
74153;DHT22;62505;46.070;14.492;2022-12-07T05:51:30;20.90;81.70
74153;DHT22;62505;46.070;14.492;2022-12-07T05:53:57;21.00;82.40
74153;DHT22;62505;46.070;14.492;2022-12-07T05:56:24;21.10;81.80
74153;DHT22;62505;46.070;14.492;2022-12-07T05:58:52;21.10;81.10
74153;DHT22;62505;46.070;14.492;2022-12-07T06:01:37;21.10;81.40
74153;DHT22;62505;46.070;14.492;2022-12-07T06:04:04;21.10;81.50
74153;DHT22;62505;46.070;14.492;2022-12-07T06:06:31;21.00;83.60
74153;DHT22;62505;46.070;14.492;2022-12-07T06:08:58;21.00;84.50
74153;DHT22;62505;46.070;14.492;2022-12-07T06:11:25;21.00;84.70
74153;DHT22;62505;46.070;14.492;2022-12-07T06:14:09;21.00;85.10
74153;DHT22;62505;46.070;14.492;2022-12-07T06:16:38;21.00;87.30
74153;DHT22;62505;46.070;14.492;2022-12-07T06:19:05;21.00;87.90
74153;DHT22;62505;46.070;14.492;2022-12-07T06:21:32;21.00;90.30
74153;DHT22;62505;46.070;14.492;2022-12-07T06:23:59;21.00;90.60
74153;DHT22;62505;46.070;14.492;2022-12-07T06:26:27;21.00;87.90
74153;DHT22;62505;46.070;14.492;2022-12-07T06:28:54;21.00;87.70
74153;DHT22;62505;46.070;14.492;2022-12-07T06:31:21;21.10;86.80
74153;DHT22;62505;46.070;14.492;2022-12-07T06:33:49;21.20;88.10
74153;DHT22;62505;46.070;14.492;2022-12-07T06:36:17;21.20;88.40
74153;DHT22;62505;46.070;14.492;2022-12-07T06:38:44;21.10;88.50
74153;DHT22;62505;46.070;14.492;2022-12-07T06:41:11;21.10;88.60
74153;DHT22;62505;46.070;14.492;2022-12-07T06:43:38;21.10;88.10
74153;DHT22;62505;46.070;14.492;2022-12-07T06:46:05;21.10;86.70
74153;DHT22;62505;46.070;14.492;2022-12-07T06:48:32;21.10;86.50
74153;DHT22;62505;46.070;14.492;2022-12-07T06:51:00;21.00;85.60
74153;DHT22;62505;46.070;14.492;2022-12-07T06:53:27;21.00;85.10
74153;DHT22;62505;46.070;14.492;2022-12-07T06:55:54;21.10;82.60
74153;DHT22;62505;46.070;14.492;2022-12-07T06:58:21;21.20;82.60
74153;DHT22;62505;46.070;14.492;2022-12-07T07:00:48;21.20;82.30
74153;DHT22;62505;46.070;14.492;2022-12-07T07:03:16;21.20;82.40
74153;DHT22;62505;46.070;14.492;2022-12-07T07:05:43;21.20;82.30
74153;DHT22;62505;46.070;14.492;2022-12-07T07:08:12;21.20;82.30
74153;DHT22;62505;46.070;14.492;2022-12-07T07:10:40;21.10;82.30
74153;DHT22;62505;46.070;14.492;2022-12-07T07:13:08;21.10;82.30
74153;DHT22;62505;46.070;14.492;2022-12-07T07:15:36;21.10;82.40
74153;DHT22;62505;46.070;14.492;2022-12-07T07:18:04;21.10;82.20
74153;DHT22;62505;46.070;14.492;2022-12-07T07:20:30;21.10;82.00
74153;DHT22;62505;46.070;14.492;2022-12-07T07:22:57;21.10;82.30
74153;DHT22;62505;46.070;14.492;2022-12-07T07:25:26;21.10;82.50
74153;DHT22;62505;46.070;14.492;2022-12-07T07:27:53;21.10;82.50
74153;DHT22;62505;46.070;14.492;2022-12-07T07:30:20;21.00;82.80
74153;DHT22;62505;46.070;14.492;2022-12-07T07:32:47;21.00;82.90
74153;DHT22;62505;46.070;14.492;2022-12-07T07:35:14;21.00;82.40
74153;DHT22;62505;46.070;14.492;2022-12-07T07:37:41;21.00;82.80
74153;DHT22;62505;46.070;14.492;2022-12-07T07:40:09;21.00;82.90
74153;DHT22;62505;46.070;14.492;2022-12-07T07:42:37;21.00;83.00
74153;DHT22;62505;46.070;14.492;2022-12-07T07:45:05;21.00;83.10
74153;DHT22;62505;46.070;14.492;2022-12-07T07:47:32;21.00;83.10
74153;DHT22;62505;46.070;14.492;2022-12-07T07:49:59;21.00;83.10
74153;DHT22;62505;46.070;14.492;2022-12-07T07:52:26;21.00;83.90
74153;DHT22;62505;46.070;14.492;2022-12-07T07:54:53;21.00;83.40
74153;DHT22;62505;46.070;14.492;2022-12-07T07:57:20;21.10;83.40
74153;DHT22;62505;46.070;14.492;2022-12-07T07:59:48;21.00;83.50
74153;DHT22;62505;46.070;14.492;2022-12-07T08:02:17;21.00;83.40
74153;DHT22;62505;46.070;14.492;2022-12-07T08:04:45;21.00;83.50
74153;DHT22;62505;46.070;14.492;2022-12-07T08:07:13;21.00;83.50
74153;DHT22;62505;46.070;14.492;2022-12-07T08:09:40;21.00;83.50
74153;DHT22;62505;46.070;14.492;2022-12-07T08:12:07;21.00;83.80
74153;DHT22;62505;46.070;14.492;2022-12-07T08:14:34;21.10;80.70
74153;DHT22;62505;46.070;14.492;2022-12-07T08:17:02;21.10;81.90
74153;DHT22;62505;46.070;14.492;2022-12-07T08:19:30;21.10;82.30
74153;DHT22;62505;46.070;14.492;2022-12-07T08:21:56;21.10;83.00
74153;DHT22;62505;46.070;14.492;2022-12-07T08:24:24;21.00;83.20
74153;DHT22;62505;46.070;14.492;2022-12-07T08:26:51;21.00;83.10
74153;DHT22;62505;46.070;14.492;2022-12-07T08:29:18;21.00;83.40
74153;DHT22;62505;46.070;14.492;2022-12-07T08:31:47;21.00;83.50
74153;DHT22;62505;46.070;14.492;2022-12-07T08:34:16;21.00;83.60
74153;DHT22;62505;46.070;14.492;2022-12-07T08:36:43;21.00;83.70
74153;DHT22;62505;46.070;14.492;2022-12-07T08:39:10;21.00;83.70
74153;DHT22;62505;46.070;14.492;2022-12-07T08:41:37;21.00;83.80
74153;DHT22;62505;46.070;14.492;2022-12-07T08:44:04;21.00;83.70
74153;DHT22;62505;46.070;14.492;2022-12-07T08:46:33;21.10;83.80
74153;DHT22;62505;46.070;14.492;2022-12-07T08:49:05;21.10;83.80
74153;DHT22;62505;46.070;14.492;2022-12-07T08:51:35;21.00;83.70
74153;DHT22;62505;46.070;14.492;2022-12-07T08:54:05;21.00;83.90
74153;DHT22;62505;46.070;14.492;2022-12-07T08:56:34;21.10;83.60
74153;DHT22;62505;46.070;14.492;2022-12-07T08:59:01;21.00;83.70
74153;DHT22;62505;46.070;14.492;2022-12-07T09:01:28;21.10;83.70
74153;DHT22;62505;46.070;14.492;2022-12-07T09:03:56;21.00;82.50
74153;DHT22;62505;46.070;14.492;2022-12-07T09:06:23;21.10;79.70
74153;DHT22;62505;46.070;14.492;2022-12-07T09:08:54;21.10;78.60
74153;DHT22;62505;46.070;14.492;2022-12-07T09:11:21;21.10;81.50
74153;DHT22;62505;46.070;14.492;2022-12-07T09:13:48;21.10;82.00
74153;DHT22;62505;46.070;14.492;2022-12-07T09:16:15;21.20;81.80
74153;DHT22;62505;46.070;14.492;2022-12-07T09:18:42;21.40;81.20
74153;DHT22;62505;46.070;14.492;2022-12-07T09:21:09;21.60;80.20
74153;DHT22;62505;46.070;14.492;2022-12-07T09:23:36;21.70;79.70
74153;DHT22;62505;46.070;14.492;2022-12-07T09:26:05;21.80;79.30
74153;DHT22;62505;46.070;14.492;2022-12-07T09:28:32;21.90;79.00
74153;DHT22;62505;46.070;14.492;2022-12-07T09:30:59;22.00;78.70
74153;DHT22;62505;46.070;14.492;2022-12-07T09:33:26;22.00;78.50
74153;DHT22;62505;46.070;14.492;2022-12-07T09:35:53;22.10;78.30
74153;DHT22;62505;46.070;14.492;2022-12-07T09:38:20;22.20;78.20
74153;DHT22;62505;46.070;14.492;2022-12-07T09:40:47;22.20;78.00
74153;DHT22;62505;46.070;14.492;2022-12-07T09:43:18;22.20;77.90
74153;DHT22;62505;46.070;14.492;2022-12-07T09:45:47;22.20;77.90
74153;DHT22;62505;46.070;14.492;2022-12-07T09:48:17;22.30;77.60
74153;DHT22;62505;46.070;14.492;2022-12-07T09:50:46;22.30;77.70
74153;DHT22;62505;46.070;14.492;2022-12-07T09:53:17;22.30;77.60
74153;DHT22;62505;46.070;14.492;2022-12-07T09:55:46;22.30;77.40
74153;DHT22;62505;46.070;14.492;2022-12-07T09:58:19;22.30;77.30
74153;DHT22;62505;46.070;14.492;2022-12-07T10:00:47;22.30;76.80
74153;DHT22;62505;46.070;14.492;2022-12-07T10:03:14;22.30;77.20
74153;DHT22;62505;46.070;14.492;2022-12-07T10:05:44;22.30;77.20
74153;DHT22;62505;46.070;14.492;2022-12-07T10:08:12;22.30;77.10
74153;DHT22;62505;46.070;14.492;2022-12-07T10:10:41;22.40;76.90
74153;DHT22;62505;46.070;14.492;2022-12-07T10:13:10;22.40;76.90
74153;DHT22;62505;46.070;14.492;2022-12-07T10:15:59;22.30;77.00
74153;DHT22;62505;46.070;14.492;2022-12-07T10:18:29;22.30;77.10
74153;DHT22;62505;46.070;14.492;2022-12-07T10:21:02;22.30;77.40
74153;DHT22;62505;46.070;14.492;2022-12-07T10:23:29;22.30;77.70
74153;DHT22;62505;46.070;14.492;2022-12-07T10:25:56;22.20;77.90
74153;DHT22;62505;46.070;14.492;2022-12-07T10:28:27;22.20;78.10
74153;DHT22;62505;46.070;14.492;2022-12-07T10:31:03;22.20;78.40
74153;DHT22;62505;46.070;14.492;2022-12-07T10:33:51;22.20;78.50
74153;DHT22;62505;46.070;14.492;2022-12-07T10:36:21;22.10;78.60
74153;DHT22;62505;46.070;14.492;2022-12-07T10:38:51;22.10;78.90
74153;DHT22;62505;46.070;14.492;2022-12-07T10:41:18;22.10;79.00
74153;DHT22;62505;46.070;14.492;2022-12-07T10:43:48;22.10;79.20
74153;DHT22;62505;46.070;14.492;2022-12-07T10:52:05;22.10;79.50
74153;DHT22;62505;46.070;14.492;2022-12-07T10:54:40;22.00;79.50
74153;DHT22;62505;46.070;14.492;2022-12-07T10:57:19;22.10;79.60
74153;DHT22;62505;46.070;14.492;2022-12-07T11:00:04;22.10;79.80
74153;DHT22;62505;46.070;14.492;2022-12-07T11:03:02;22.10;80.00
74153;DHT22;62505;46.070;14.492;2022-12-07T11:05:39;22.10;80.00
74153;DHT22;62505;46.070;14.492;2022-12-07T11:08:15;22.10;80.00
74153;DHT22;62505;46.070;14.492;2022-12-07T11:10:51;22.10;80.10
74153;DHT22;62505;46.070;14.492;2022-12-07T11:13:26;22.10;80.00
74153;DHT22;62505;46.070;14.492;2022-12-07T11:16:14;22.20;79.60
74153;DHT22;62505;46.070;14.492;2022-12-07T11:18:52;22.30;79.40
74153;DHT22;62505;46.070;14.492;2022-12-07T11:21:27;22.30;79.00
74153;DHT22;62505;46.070;14.492;2022-12-07T11:24:01;22.40;78.90
74153;DHT22;62505;46.070;14.492;2022-12-07T11:26:43;22.40;78.70
74153;DHT22;62505;46.070;14.492;2022-12-07T11:29:29;22.40;78.70
74153;DHT22;62505;46.070;14.492;2022-12-07T11:32:04;22.40;79.00
74153;DHT22;62505;46.070;14.492;2022-12-07T11:34:42;22.40;79.20
74153;DHT22;62505;46.070;14.492;2022-12-07T11:37:15;22.30;79.40
74153;DHT22;62505;46.070;14.492;2022-12-07T11:39:49;22.30;79.60
74153;DHT22;62505;46.070;14.492;2022-12-07T11:42:22;22.20;80.00
74153;DHT22;62505;46.070;14.492;2022-12-07T11:44:53;22.20;80.10
74153;DHT22;62505;46.070;14.492;2022-12-07T11:47:28;22.20;80.30
74153;DHT22;62505;46.070;14.492;2022-12-07T11:50:10;22.10;80.40
74153;DHT22;62505;46.070;14.492;2022-12-07T11:52:45;22.10;80.40
74153;DHT22;62505;46.070;14.492;2022-12-07T11:55:19;22.20;80.20
74153;DHT22;62505;46.070;14.492;2022-12-07T11:57:52;22.20;79.80
74153;DHT22;62505;46.070;14.492;2022-12-07T12:00:21;22.20;80.30
74153;DHT22;62505;46.070;14.492;2022-12-07T12:02:52;22.30;79.10
74153;DHT22;62505;46.070;14.492;2022-12-07T12:05:24;22.40;78.70
74153;DHT22;62505;46.070;14.492;2022-12-07T12:08:00;22.40;78.60
74153;DHT22;62505;46.070;14.492;2022-12-07T12:10:39;22.40;78.50
74153;DHT22;62505;46.070;14.492;2022-12-07T12:16:15;22.40;78.20
74153;DHT22;62505;46.070;14.492;2022-12-07T12:19:00;22.30;78.30
74153;DHT22;62505;46.070;14.492;2022-12-07T12:21:34;22.30;78.30
74153;DHT22;62505;46.070;14.492;2022-12-07T12:24:06;22.20;78.40
74153;DHT22;62505;46.070;14.492;2022-12-07T12:26:37;22.20;78.70
74153;DHT22;62505;46.070;14.492;2022-12-07T12:29:06;22.20;79.00
74153;DHT22;62505;46.070;14.492;2022-12-07T12:31:37;22.20;79.20
74153;DHT22;62505;46.070;14.492;2022-12-07T12:34:30;22.20;79.40
74153;DHT22;62505;46.070;14.492;2022-12-07T12:36:59;22.20;79.50
74153;DHT22;62505;46.070;14.492;2022-12-07T12:39:26;22.20;79.30
74153;DHT22;62505;46.070;14.492;2022-12-07T12:42:00;22.30;79.20
74153;DHT22;62505;46.070;14.492;2022-12-07T12:45:05;22.40;78.90
74153;DHT22;62505;46.070;14.492;2022-12-07T12:47:56;22.40;78.60
74153;DHT22;62505;46.070;14.492;2022-12-07T12:50:26;22.50;78.40
74153;DHT22;62505;46.070;14.492;2022-12-07T12:53:16;22.50;79.00
74153;DHT22;62505;46.070;14.492;2022-12-07T12:56:17;22.50;78.30
74153;DHT22;62505;46.070;14.492;2022-12-07T12:58:48;22.50;78.10
74153;DHT22;62505;46.070;14.492;2022-12-07T13:01:40;22.40;77.60
74153;DHT22;62505;46.070;14.492;2022-12-07T13:04:38;22.30;77.10
74153;DHT22;62505;46.070;14.492;2022-12-07T13:07:12;22.30;77.40
74153;DHT22;62505;46.070;14.492;2022-12-07T13:09:43;22.30;77.60
74153;DHT22;62505;46.070;14.492;2022-12-07T13:12:14;22.20;77.80
74153;DHT22;62505;46.070;14.492;2022-12-07T13:14:57;22.20;77.90
74153;DHT22;62505;46.070;14.492;2022-12-07T13:18:00;22.20;78.20
74153;DHT22;62505;46.070;14.492;2022-12-07T13:20:51;22.10;78.30
74153;DHT22;62505;46.070;14.492;2022-12-07T13:23:25;22.10;78.60
74153;DHT22;62505;46.070;14.492;2022-12-07T13:25:59;22.10;78.70
74153;DHT22;62505;46.070;14.492;2022-12-07T13:28:35;22.00;78.70
74153;DHT22;62505;46.070;14.492;2022-12-07T13:31:31;22.00;78.50
74153;DHT22;62505;46.070;14.492;2022-12-07T13:34:01;21.90;77.50
74153;DHT22;62505;46.070;14.492;2022-12-07T13:36:30;21.90;77.60
74153;DHT22;62505;46.070;14.492;2022-12-07T13:39:17;21.90;77.60
74153;DHT22;62505;46.070;14.492;2022-12-07T13:41:48;21.80;77.70
74153;DHT22;62505;46.070;14.492;2022-12-07T13:44:17;21.80;77.60
74153;DHT22;62505;46.070;14.492;2022-12-07T13:46:50;21.80;77.80
74153;DHT22;62505;46.070;14.492;2022-12-07T13:49:22;21.80;77.80
74153;DHT22;62505;46.070;14.492;2022-12-07T13:51:50;21.80;77.90
74153;DHT22;62505;46.070;14.492;2022-12-07T13:54:18;21.80;78.10
74153;DHT22;62505;46.070;14.492;2022-12-07T13:56:48;21.90;77.90
74153;DHT22;62505;46.070;14.492;2022-12-07T13:59:19;21.80;77.10
74153;DHT22;62505;46.070;14.492;2022-12-07T14:01:47;21.80;76.20
74153;DHT22;62505;46.070;14.492;2022-12-07T14:04:30;21.80;75.30
74153;DHT22;62505;46.070;14.492;2022-12-07T14:06:58;21.80;74.50
74153;DHT22;62505;46.070;14.492;2022-12-07T14:09:27;21.80;74.10
74153;DHT22;62505;46.070;14.492;2022-12-07T14:11:56;21.70;75.20
74153;DHT22;62505;46.070;14.492;2022-12-07T14:14:26;21.70;75.00
74153;DHT22;62505;46.070;14.492;2022-12-07T14:17:00;21.70;74.80
74153;DHT22;62505;46.070;14.492;2022-12-07T14:19:50;21.70;77.00
74153;DHT22;62505;46.070;14.492;2022-12-07T14:22:36;21.80;76.50
74153;DHT22;62505;46.070;14.492;2022-12-07T14:25:27;21.70;77.60
74153;DHT22;62505;46.070;14.492;2022-12-07T14:27:56;21.80;76.80
74153;DHT22;62505;46.070;14.492;2022-12-07T14:30:26;21.80;77.60
74153;DHT22;62505;46.070;14.492;2022-12-07T14:32:55;21.80;77.50
74153;DHT22;62505;46.070;14.492;2022-12-07T14:35:25;21.80;77.30
74153;DHT22;62505;46.070;14.492;2022-12-07T14:37:52;21.80;76.60
74153;DHT22;62505;46.070;14.492;2022-12-07T14:40:20;21.80;77.00
74153;DHT22;62505;46.070;14.492;2022-12-07T14:42:51;21.90;77.50
74153;DHT22;62505;46.070;14.492;2022-12-07T14:45:20;21.90;77.30
74153;DHT22;62505;46.070;14.492;2022-12-07T14:47:48;21.90;77.60
74153;DHT22;62505;46.070;14.492;2022-12-07T14:50:17;21.90;77.40
74153;DHT22;62505;46.070;14.492;2022-12-07T14:52:48;21.90;77.90
74153;DHT22;62505;46.070;14.492;2022-12-07T14:55:20;21.90;77.80
74153;DHT22;62505;46.070;14.492;2022-12-07T14:57:49;21.90;78.00
74153;DHT22;62505;46.070;14.492;2022-12-07T15:00:17;21.90;78.30
74153;DHT22;62505;46.070;14.492;2022-12-07T15:02:45;21.90;78.40
74153;DHT22;62505;46.070;14.492;2022-12-07T15:05:12;21.90;78.50
74153;DHT22;62505;46.070;14.492;2022-12-07T15:07:39;21.90;78.50
74153;DHT22;62505;46.070;14.492;2022-12-07T15:10:13;21.90;78.70
74153;DHT22;62505;46.070;14.492;2022-12-07T15:12:41;22.00;78.60
74153;DHT22;62505;46.070;14.492;2022-12-07T15:15:09;21.90;78.50
74153;DHT22;62505;46.070;14.492;2022-12-07T15:17:36;21.90;78.30
74153;DHT22;62505;46.070;14.492;2022-12-07T15:20:04;21.90;78.10
74153;DHT22;62505;46.070;14.492;2022-12-07T15:22:31;21.90;77.70
74153;DHT22;62505;46.070;14.492;2022-12-07T15:24:58;21.90;78.00
74153;DHT22;62505;46.070;14.492;2022-12-07T15:27:27;21.80;78.00
74153;DHT22;62505;46.070;14.492;2022-12-07T15:29:54;21.80;78.00
74153;DHT22;62505;46.070;14.492;2022-12-07T15:32:20;21.80;78.20
74153;DHT22;62505;46.070;14.492;2022-12-07T15:34:48;21.80;78.20
74153;DHT22;62505;46.070;14.492;2022-12-07T15:37:15;21.80;78.40
74153;DHT22;62505;46.070;14.492;2022-12-07T15:39:42;21.70;78.50
74153;DHT22;62505;46.070;14.492;2022-12-07T15:42:09;21.70;78.60
74153;DHT22;62505;46.070;14.492;2022-12-07T15:44:38;21.70;78.60
74153;DHT22;62505;46.070;14.492;2022-12-07T15:47:22;21.70;78.60
74153;DHT22;62505;46.070;14.492;2022-12-07T15:49:49;21.70;78.70